AAL2662 KCLT-KTUL
Flight info
| Callsign | AAL2662 |
|---|---|
| Flight time | 2h 4m |
| Altitude | 30000 |
| Route | BOBZY5 BNA J46 LUKKY RZC PRYOR |
| Aircraft | A320/M-SDE3FGHIRWY/LB1 |
Departure
| Time | 2026-05-05 01:53 |
|---|---|
| Airport | Charlotte Douglas International Airport (KCLT) |
Arrival
| Time | 2026-05-05 03:58 |
|---|---|
| Airport | Tulsa International Airport (KTUL) |
| Time | Latitude | Longitude | Altitude | Speed | Heading |
|---|---|---|---|---|---|
| 2026-05-05 01:27 | 35.21896 | -80.94193 | 732 ft | 0 kts | 252° |
| 2026-05-05 01:38 | 35.21899 | -80.94183 | 731 ft | 4 kts | 252° |
| 2026-05-05 01:38 | 35.21907 | -80.94152 | 732 ft | 4 kts | 249° |
| 2026-05-05 01:38 | 35.21918 | -80.94125 | 731 ft | 1 kts | 237° |
| 2026-05-05 01:41 | 35.21917 | -80.94126 | 731 ft | 1 kts | 232° |
| 2026-05-05 01:41 | 35.21908 | -80.94130 | 732 ft | 2 kts | 198° |
| 2026-05-05 01:41 | 35.21894 | -80.94123 | 731 ft | 3 kts | 141° |
| 2026-05-05 01:42 | 35.21873 | -80.94107 | 732 ft | 4 kts | 157° |
| 2026-05-05 01:42 | 35.21839 | -80.94098 | 732 ft | 6 kts | 173° |
| 2026-05-05 01:42 | 35.21793 | -80.94101 | 732 ft | 7 kts | 187° |
| 2026-05-05 01:42 | 35.21740 | -80.94126 | 732 ft | 9 kts | 208° |
| 2026-05-05 01:43 | 35.21689 | -80.94180 | 732 ft | 11 kts | 233° |
| 2026-05-05 01:43 | 35.21671 | -80.94273 | 732 ft | 12 kts | 271° |
| 2026-05-05 01:43 | 35.21677 | -80.94386 | 732 ft | 14 kts | 269° |
| 2026-05-05 01:43 | 35.21670 | -80.94505 | 732 ft | 11 kts | 260° |
| 2026-05-05 01:44 | 35.21658 | -80.94589 | 732 ft | 10 kts | 259° |
| 2026-05-05 01:44 | 35.21641 | -80.94662 | 731 ft | 9 kts | 251° |
| 2026-05-05 01:44 | 35.21631 | -80.94718 | 732 ft | 1 kts | 264° |
| 2026-05-05 01:44 | 35.21629 | -80.94737 | 732 ft | 3 kts | 265° |
| 2026-05-05 01:45 | 35.21629 | -80.94739 | 732 ft | 0 kts | 265° |
| 2026-05-05 01:45 | 35.21629 | -80.94740 | 732 ft | 1 kts | 265° |
| 2026-05-05 01:45 | 35.21628 | -80.94751 | 732 ft | 2 kts | 265° |
| 2026-05-05 01:46 | 35.21627 | -80.94774 | 732 ft | 3 kts | 264° |
| 2026-05-05 01:46 | 35.21622 | -80.94806 | 732 ft | 4 kts | 256° |
| 2026-05-05 01:46 | 35.21611 | -80.94841 | 732 ft | 3 kts | 254° |
| 2026-05-05 01:46 | 35.21609 | -80.94856 | 732 ft | 1 kts | 265° |
| 2026-05-05 01:47 | 35.21609 | -80.94858 | 732 ft | 0 kts | 265° |
| 2026-05-05 01:47 | 35.21609 | -80.94860 | 732 ft | 1 kts | 265° |
| 2026-05-05 01:48 | 35.21608 | -80.94872 | 732 ft | 2 kts | 266° |
| 2026-05-05 01:48 | 35.21606 | -80.94899 | 733 ft | 5 kts | 265° |
| 2026-05-05 01:48 | 35.21601 | -80.94965 | 733 ft | 9 kts | 264° |
| 2026-05-05 01:48 | 35.21634 | -80.95022 | 733 ft | 9 kts | 345° |
| 2026-05-05 01:49 | 35.21705 | -80.95029 | 733 ft | 11 kts | 355° |
| 2026-05-05 01:49 | 35.21787 | -80.95036 | 734 ft | 13 kts | 356° |
| 2026-05-05 01:49 | 35.21881 | -80.95043 | 734 ft | 14 kts | 356° |
| 2026-05-05 01:49 | 35.21987 | -80.95052 | 734 ft | 16 kts | 356° |
| 2026-05-05 01:50 | 35.22105 | -80.95064 | 734 ft | 18 kts | 356° |
| 2026-05-05 01:50 | 35.22229 | -80.95074 | 734 ft | 16 kts | 355° |
| 2026-05-05 01:50 | 35.22346 | -80.95084 | 734 ft | 18 kts | 355° |
| 2026-05-05 01:50 | 35.22474 | -80.95096 | 733 ft | 18 kts | 356° |
| 2026-05-05 01:51 | 35.22570 | -80.95104 | 733 ft | 11 kts | 356° |
| 2026-05-05 01:51 | 35.22654 | -80.95111 | 733 ft | 13 kts | 356° |
| 2026-05-05 01:51 | 35.22734 | -80.95154 | 734 ft | 12 kts | 294° |
| 2026-05-05 01:51 | 35.22731 | -80.95223 | 736 ft | 7 kts | 265° |
| 2026-05-05 01:52 | 35.22727 | -80.95272 | 739 ft | 6 kts | 265° |
| 2026-05-05 01:52 | 35.22710 | -80.95316 | 740 ft | 6 kts | 198° |
| 2026-05-05 01:52 | 35.22659 | -80.95312 | 740 ft | 9 kts | 176° |
| 2026-05-05 01:52 | 35.22432 | -80.95293 | 740 ft | 69 kts | 176° |
| 2026-05-05 01:53 | 35.21733 | -80.95231 | 742 ft | 130 kts | 176° |
| 2026-05-05 01:53 | 35.20673 | -80.95144 | 878 ft | 163 kts | 176° |
| 2026-05-05 01:53 | 35.19547 | -80.95036 | 1528 ft | 163 kts | 175° |
| 2026-05-05 01:53 | 35.18408 | -80.94909 | 2077 ft | 169 kts | 175° |
| 2026-05-05 01:54 | 35.17168 | -80.94769 | 2313 ft | 190 kts | 175° |
| 2026-05-05 01:54 | 35.15791 | -80.94951 | 2498 ft | 212 kts | 205° |
| 2026-05-05 01:54 | 35.14605 | -80.96134 | 2753 ft | 234 kts | 236° |
| 2026-05-05 01:54 | 35.14061 | -80.98070 | 3128 ft | 254 kts | 270° |
| 2026-05-05 01:55 | 35.14339 | -81.00235 | 3846 ft | 261 kts | 282° |
| 2026-05-05 01:55 | 35.14701 | -81.02428 | 4684 ft | 265 kts | 281° |
| 2026-05-05 01:55 | 35.15057 | -81.04654 | 5511 ft | 268 kts | 281° |
| 2026-05-05 01:55 | 35.15413 | -81.06912 | 6328 ft | 272 kts | 281° |
| 2026-05-05 01:56 | 35.15769 | -81.09189 | 7117 ft | 275 kts | 281° |
| 2026-05-05 01:56 | 35.16125 | -81.11473 | 7882 ft | 278 kts | 281° |
| 2026-05-05 01:56 | 35.16487 | -81.13808 | 8645 ft | 281 kts | 281° |
| 2026-05-05 01:56 | 35.16854 | -81.16172 | 9393 ft | 285 kts | 281° |
| 2026-05-05 01:57 | 35.17227 | -81.18563 | 10109 ft | 288 kts | 281° |
| 2026-05-05 01:57 | 35.17612 | -81.21036 | 10440 ft | 307 kts | 281° |
| 2026-05-05 01:57 | 35.18012 | -81.23598 | 10747 ft | 322 kts | 281° |
| 2026-05-05 01:57 | 35.18439 | -81.26327 | 11116 ft | 331 kts | 279° |
| 2026-05-05 01:58 | 35.18871 | -81.29100 | 11653 ft | 336 kts | 279° |
| 2026-05-05 01:58 | 35.19288 | -81.31809 | 12584 ft | 328 kts | 278° |
| 2026-05-05 01:58 | 35.19451 | -81.34574 | 13397 ft | 327 kts | 268° |
| 2026-05-05 01:58 | 35.19365 | -81.37356 | 14032 ft | 329 kts | 268° |
| 2026-05-05 01:59 | 35.19277 | -81.40167 | 14584 ft | 333 kts | 268° |
| 2026-05-05 01:59 | 35.19193 | -81.43012 | 15175 ft | 335 kts | 268° |
| 2026-05-05 01:59 | 35.19114 | -81.45862 | 15751 ft | 337 kts | 268° |
| 2026-05-05 01:59 | 35.19033 | -81.48739 | 16338 ft | 340 kts | 268° |
| 2026-05-05 02:00 | 35.18951 | -81.51640 | 16924 ft | 342 kts | 268° |
| 2026-05-05 02:00 | 35.18867 | -81.54551 | 17510 ft | 344 kts | 268° |
| 2026-05-05 02:00 | 35.18770 | -81.57491 | 18125 ft | 346 kts | 268° |
| 2026-05-05 02:00 | 35.18664 | -81.60453 | 18552 ft | 353 kts | 268° |
| 2026-05-05 02:01 | 35.18556 | -81.63507 | 18767 ft | 365 kts | 267° |
| 2026-05-05 02:01 | 35.18462 | -81.66627 | 19217 ft | 369 kts | 268° |
| 2026-05-05 02:01 | 35.18394 | -81.69775 | 19780 ft | 371 kts | 269° |
| 2026-05-05 02:01 | 35.18340 | -81.72944 | 20322 ft | 374 kts | 269° |
| 2026-05-05 02:02 | 35.18290 | -81.76128 | 20841 ft | 376 kts | 269° |
| 2026-05-05 02:02 | 35.18235 | -81.79336 | 21340 ft | 379 kts | 269° |
| 2026-05-05 02:02 | 35.18175 | -81.82528 | 21815 ft | 381 kts | 269° |
| 2026-05-05 02:02 | 35.18109 | -81.85776 | 22282 ft | 384 kts | 268° |
| 2026-05-05 02:03 | 35.18036 | -81.89050 | 22739 ft | 386 kts | 268° |
| 2026-05-05 02:03 | 35.17960 | -81.92343 | 23199 ft | 389 kts | 268° |
| 2026-05-05 02:03 | 35.17884 | -81.95664 | 23641 ft | 391 kts | 268° |
| 2026-05-05 02:03 | 35.17807 | -81.98991 | 24022 ft | 394 kts | 268° |
| 2026-05-05 02:04 | 35.17731 | -82.02346 | 24378 ft | 396 kts | 268° |
| 2026-05-05 02:04 | 35.17657 | -82.05711 | 24738 ft | 397 kts | 268° |
| 2026-05-05 02:04 | 35.17580 | -82.09101 | 25098 ft | 399 kts | 268° |
| 2026-05-05 02:04 | 35.17499 | -82.12506 | 25453 ft | 401 kts | 268° |
| 2026-05-05 02:05 | 35.17416 | -82.15917 | 25798 ft | 403 kts | 268° |
| 2026-05-05 02:05 | 35.17371 | -82.19350 | 26132 ft | 405 kts | 272° |
| 2026-05-05 02:05 | 35.17710 | -82.22770 | 26465 ft | 407 kts | 281° |
| 2026-05-05 02:05 | 35.18452 | -82.26118 | 26805 ft | 409 kts | 285° |
| 2026-05-05 02:06 | 35.19250 | -82.29466 | 27137 ft | 411 kts | 285° |
| 2026-05-05 02:06 | 35.20052 | -82.32839 | 27469 ft | 413 kts | 285° |
| 2026-05-05 02:06 | 35.20853 | -82.36218 | 27798 ft | 415 kts | 285° |
| 2026-05-05 02:06 | 35.21657 | -82.39623 | 28114 ft | 417 kts | 285° |
| 2026-05-05 02:07 | 35.22461 | -82.43036 | 28427 ft | 419 kts | 285° |
| 2026-05-05 02:07 | 35.23267 | -82.46464 | 28869 ft | 418 kts | 285° |
| 2026-05-05 02:07 | 35.23797 | -82.48724 | 29172 ft | 417 kts | 285° |
| 2026-05-05 02:07 | 35.24867 | -82.53278 | 29839 ft | 415 kts | 285° |
| 2026-05-05 02:08 | 35.25395 | -82.55528 | 30019 ft | 416 kts | 285° |
| 2026-05-05 02:08 | 35.26190 | -82.58916 | 30071 ft | 414 kts | 285° |
| 2026-05-05 02:08 | 35.27770 | -82.65676 | 30070 ft | 412 kts | 285° |
| 2026-05-05 02:09 | 35.29338 | -82.72411 | 30067 ft | 410 kts | 285° |
| 2026-05-05 02:09 | 35.30899 | -82.79132 | 30062 ft | 410 kts | 284° |
| 2026-05-05 02:10 | 35.32447 | -82.85834 | 30063 ft | 409 kts | 284° |
| 2026-05-05 02:10 | 35.33994 | -82.92545 | 30057 ft | 409 kts | 284° |
| 2026-05-05 02:11 | 35.35539 | -82.99253 | 30048 ft | 409 kts | 284° |
| 2026-05-05 02:11 | 35.37080 | -83.05964 | 30052 ft | 409 kts | 284° |
| 2026-05-05 02:12 | 35.39391 | -83.16029 | 30044 ft | 409 kts | 284° |
| 2026-05-05 02:13 | 35.40909 | -83.22701 | 30038 ft | 409 kts | 284° |
| 2026-05-05 02:13 | 35.42437 | -83.29416 | 30041 ft | 409 kts | 284° |
| 2026-05-05 02:14 | 35.43959 | -83.36139 | 30041 ft | 409 kts | 284° |
| 2026-05-05 02:14 | 35.45474 | -83.42871 | 30043 ft | 409 kts | 284° |
| 2026-05-05 02:15 | 35.46983 | -83.49599 | 30037 ft | 409 kts | 284° |
| 2026-05-05 02:15 | 35.48487 | -83.56323 | 30039 ft | 409 kts | 284° |
| 2026-05-05 02:16 | 35.49988 | -83.63044 | 30030 ft | 408 kts | 284° |
| 2026-05-05 02:16 | 35.51485 | -83.69751 | 30034 ft | 407 kts | 284° |
| 2026-05-05 02:17 | 35.52971 | -83.76446 | 30022 ft | 406 kts | 284° |
| 2026-05-05 02:17 | 35.54459 | -83.83136 | 30022 ft | 406 kts | 284° |
| 2026-05-05 02:18 | 35.55940 | -83.89831 | 30010 ft | 406 kts | 284° |
| 2026-05-05 02:18 | 35.57409 | -83.96528 | 30010 ft | 405 kts | 284° |
| 2026-05-05 02:19 | 35.58875 | -84.03210 | 30015 ft | 404 kts | 284° |
| 2026-05-05 02:19 | 35.60332 | -84.09876 | 30011 ft | 404 kts | 284° |
| 2026-05-05 02:20 | 35.61785 | -84.16508 | 30023 ft | 404 kts | 284° |
| 2026-05-05 02:20 | 35.63238 | -84.23178 | 30014 ft | 404 kts | 284° |
| 2026-05-05 02:21 | 35.64688 | -84.29854 | 30001 ft | 403 kts | 284° |
| 2026-05-05 02:21 | 35.66133 | -84.36513 | 29996 ft | 403 kts | 284° |
| 2026-05-05 02:22 | 35.67576 | -84.43178 | 30016 ft | 403 kts | 284° |
| 2026-05-05 02:22 | 35.69008 | -84.49847 | 30011 ft | 403 kts | 284° |
| 2026-05-05 02:23 | 35.70439 | -84.56517 | 30003 ft | 403 kts | 284° |
| 2026-05-05 02:23 | 35.71867 | -84.63186 | 30002 ft | 403 kts | 284° |
| 2026-05-05 02:24 | 35.73286 | -84.69813 | 30004 ft | 403 kts | 284° |
| 2026-05-05 02:24 | 35.74706 | -84.76478 | 30002 ft | 402 kts | 284° |
| 2026-05-05 02:25 | 35.76115 | -84.83151 | 30004 ft | 402 kts | 284° |
| 2026-05-05 02:25 | 35.77519 | -84.89830 | 30003 ft | 402 kts | 284° |
| 2026-05-05 02:26 | 35.78923 | -84.96502 | 30004 ft | 402 kts | 284° |
| 2026-05-05 02:26 | 35.80328 | -85.03168 | 30003 ft | 402 kts | 284° |
| 2026-05-05 02:27 | 35.81729 | -85.09832 | 29998 ft | 402 kts | 284° |
| 2026-05-05 02:27 | 35.83125 | -85.16501 | 29999 ft | 402 kts | 284° |
| 2026-05-05 02:28 | 35.84512 | -85.23174 | 30002 ft | 402 kts | 284° |
| 2026-05-05 02:28 | 35.85895 | -85.29852 | 30000 ft | 402 kts | 284° |
| 2026-05-05 02:29 | 35.87274 | -85.36541 | 29988 ft | 402 kts | 284° |
| 2026-05-05 02:29 | 35.88655 | -85.43220 | 29979 ft | 402 kts | 284° |
| 2026-05-05 02:30 | 35.90027 | -85.49902 | 29982 ft | 402 kts | 284° |
| 2026-05-05 02:30 | 35.91390 | -85.56587 | 29985 ft | 402 kts | 284° |
| 2026-05-05 02:31 | 35.92748 | -85.63225 | 29990 ft | 402 kts | 284° |
| 2026-05-05 02:31 | 35.94112 | -85.69918 | 29988 ft | 402 kts | 284° |
| 2026-05-05 02:32 | 35.95473 | -85.76610 | 29980 ft | 402 kts | 284° |
| 2026-05-05 02:32 | 35.96823 | -85.83312 | 29984 ft | 402 kts | 284° |
| 2026-05-05 02:33 | 35.98171 | -85.90015 | 29985 ft | 402 kts | 284° |
| 2026-05-05 02:33 | 35.99517 | -85.96708 | 29982 ft | 402 kts | 284° |
| 2026-05-05 02:34 | 36.00859 | -86.03408 | 29984 ft | 402 kts | 284° |
| 2026-05-05 02:34 | 36.02196 | -86.10109 | 29981 ft | 402 kts | 284° |
| 2026-05-05 02:35 | 36.03535 | -86.16807 | 29973 ft | 402 kts | 284° |
| 2026-05-05 02:35 | 36.04872 | -86.23515 | 29963 ft | 402 kts | 284° |
| 2026-05-05 02:36 | 36.06203 | -86.30217 | 29955 ft | 402 kts | 284° |
| 2026-05-05 02:36 | 36.07529 | -86.36927 | 29954 ft | 402 kts | 284° |
| 2026-05-05 02:37 | 36.08846 | -86.43626 | 29954 ft | 402 kts | 284° |
| 2026-05-05 02:37 | 36.10162 | -86.50349 | 29955 ft | 402 kts | 284° |
| 2026-05-05 02:38 | 36.11477 | -86.57072 | 29933 ft | 402 kts | 284° |
| 2026-05-05 02:38 | 36.12781 | -86.63753 | 29930 ft | 402 kts | 284° |
| 2026-05-05 02:39 | 36.13733 | -86.70611 | 29926 ft | 404 kts | 272° |
| 2026-05-05 02:39 | 36.13795 | -86.77569 | 29926 ft | 404 kts | 272° |
| 2026-05-05 02:40 | 36.13868 | -86.84496 | 29903 ft | 404 kts | 272° |
| 2026-05-05 02:40 | 36.13943 | -86.91453 | 29903 ft | 404 kts | 272° |
| 2026-05-05 02:41 | 36.14008 | -86.98418 | 29894 ft | 405 kts | 272° |
| 2026-05-05 02:41 | 36.14068 | -87.05380 | 29900 ft | 405 kts | 272° |
| 2026-05-05 02:42 | 36.14124 | -87.12358 | 29907 ft | 405 kts | 272° |
| 2026-05-05 02:42 | 36.14171 | -87.19338 | 29922 ft | 406 kts | 272° |
| 2026-05-05 02:43 | 36.14215 | -87.26325 | 29928 ft | 406 kts | 272° |
| 2026-05-05 02:43 | 36.14259 | -87.33306 | 29923 ft | 406 kts | 272° |
| 2026-05-05 02:44 | 36.14301 | -87.40233 | 29939 ft | 405 kts | 272° |
| 2026-05-05 02:44 | 36.14335 | -87.47190 | 29945 ft | 404 kts | 272° |
| 2026-05-05 02:45 | 36.14368 | -87.54137 | 29943 ft | 404 kts | 272° |
| 2026-05-05 02:45 | 36.14402 | -87.61082 | 29938 ft | 403 kts | 272° |
| 2026-05-05 02:46 | 36.14424 | -87.68032 | 29944 ft | 403 kts | 272° |
| 2026-05-05 02:46 | 36.14441 | -87.74967 | 29933 ft | 403 kts | 273° |
| 2026-05-05 02:47 | 36.14453 | -87.81887 | 29943 ft | 402 kts | 273° |
| 2026-05-05 02:47 | 36.14469 | -87.88790 | 29939 ft | 401 kts | 273° |
| 2026-05-05 02:48 | 36.14477 | -87.95688 | 29936 ft | 401 kts | 273° |
| 2026-05-05 02:48 | 36.14482 | -88.02577 | 29934 ft | 400 kts | 272° |
| 2026-05-05 02:49 | 36.14478 | -88.09472 | 29927 ft | 400 kts | 273° |
| 2026-05-05 02:49 | 36.14477 | -88.16361 | 29921 ft | 401 kts | 273° |
| 2026-05-05 02:50 | 36.14467 | -88.23259 | 29914 ft | 401 kts | 273° |
| 2026-05-05 02:50 | 36.14457 | -88.30110 | 29914 ft | 401 kts | 273° |
| 2026-05-05 02:51 | 36.14448 | -88.37018 | 29919 ft | 401 kts | 273° |
| 2026-05-05 02:51 | 36.14431 | -88.43924 | 29919 ft | 401 kts | 273° |
| 2026-05-05 02:52 | 36.14397 | -88.50822 | 29916 ft | 401 kts | 272° |
| 2026-05-05 02:52 | 36.14370 | -88.56560 | 29919 ft | 401 kts | 272° |
| 2026-05-05 02:53 | 36.14340 | -88.63454 | 29917 ft | 400 kts | 272° |
| 2026-05-05 02:53 | 36.14306 | -88.70343 | 29913 ft | 400 kts | 272° |
| 2026-05-05 02:54 | 36.14273 | -88.77219 | 29909 ft | 400 kts | 272° |
| 2026-05-05 02:54 | 36.14230 | -88.84104 | 29895 ft | 400 kts | 272° |
| 2026-05-05 02:55 | 36.14185 | -88.90929 | 29902 ft | 398 kts | 273° |
| 2026-05-05 02:55 | 36.14133 | -88.97753 | 29905 ft | 396 kts | 272° |
| 2026-05-05 02:56 | 36.14082 | -89.04550 | 29901 ft | 394 kts | 273° |
| 2026-05-05 02:56 | 36.14030 | -89.11328 | 29897 ft | 393 kts | 272° |
| 2026-05-05 02:57 | 36.13961 | -89.18098 | 29906 ft | 393 kts | 272° |
| 2026-05-05 02:57 | 36.13896 | -89.24852 | 29887 ft | 392 kts | 273° |
| 2026-05-05 02:58 | 36.13828 | -89.31589 | 29895 ft | 391 kts | 272° |
| 2026-05-05 02:58 | 36.13755 | -89.38300 | 29892 ft | 390 kts | 272° |
| 2026-05-05 02:59 | 36.13678 | -89.44997 | 29883 ft | 389 kts | 272° |
| 2026-05-05 02:59 | 36.13600 | -89.51684 | 29880 ft | 389 kts | 272° |
| 2026-05-05 03:00 | 36.13519 | -89.58363 | 29875 ft | 388 kts | 272° |
| 2026-05-05 03:00 | 36.13436 | -89.64999 | 29872 ft | 388 kts | 272° |
| 2026-05-05 03:01 | 36.13349 | -89.71671 | 29873 ft | 388 kts | 272° |
| 2026-05-05 03:01 | 36.13253 | -89.78339 | 29884 ft | 388 kts | 272° |
| 2026-05-05 03:02 | 36.13153 | -89.85022 | 29885 ft | 388 kts | 272° |
| 2026-05-05 03:02 | 36.13053 | -89.91696 | 29884 ft | 388 kts | 272° |
| 2026-05-05 03:03 | 36.12950 | -89.98373 | 29881 ft | 388 kts | 272° |
| 2026-05-05 03:03 | 36.12842 | -90.05028 | 29887 ft | 386 kts | 272° |
| 2026-05-05 03:04 | 36.12731 | -90.11650 | 29901 ft | 384 kts | 272° |
| 2026-05-05 03:04 | 36.12613 | -90.18242 | 29892 ft | 383 kts | 272° |
| 2026-05-05 03:05 | 36.12490 | -90.24819 | 29884 ft | 382 kts | 272° |
| 2026-05-05 03:05 | 36.12362 | -90.31384 | 29877 ft | 382 kts | 272° |
| 2026-05-05 03:06 | 36.12238 | -90.37951 | 29865 ft | 381 kts | 272° |
| 2026-05-05 03:06 | 36.12113 | -90.44463 | 29866 ft | 381 kts | 272° |
| 2026-05-05 03:07 | 36.11986 | -90.51004 | 29863 ft | 380 kts | 272° |
| 2026-05-05 03:07 | 36.11851 | -90.57536 | 29869 ft | 380 kts | 272° |
| 2026-05-05 03:08 | 36.11707 | -90.64076 | 29882 ft | 380 kts | 272° |
| 2026-05-05 03:08 | 36.11569 | -90.70604 | 29889 ft | 380 kts | 272° |
| 2026-05-05 03:09 | 36.11431 | -90.77129 | 29867 ft | 380 kts | 272° |
| 2026-05-05 03:09 | 36.11278 | -90.83654 | 29876 ft | 379 kts | 272° |
| 2026-05-05 03:10 | 36.11120 | -90.90178 | 29881 ft | 379 kts | 272° |
| 2026-05-05 03:10 | 36.10989 | -90.96696 | 29858 ft | 379 kts | 274° |
| 2026-05-05 03:11 | 36.11172 | -91.03191 | 29861 ft | 377 kts | 276° |
| 2026-05-05 03:11 | 36.11500 | -91.09653 | 29860 ft | 377 kts | 276° |
| 2026-05-05 03:12 | 36.11782 | -91.16121 | 29834 ft | 376 kts | 276° |
| 2026-05-05 03:12 | 36.12018 | -91.22586 | 29843 ft | 376 kts | 275° |
| 2026-05-05 03:13 | 36.12240 | -91.29039 | 29850 ft | 375 kts | 275° |
| 2026-05-05 03:13 | 36.12461 | -91.35437 | 29849 ft | 375 kts | 275° |
| 2026-05-05 03:14 | 36.12682 | -91.41873 | 29843 ft | 374 kts | 275° |
| 2026-05-05 03:14 | 36.12899 | -91.48304 | 29839 ft | 374 kts | 275° |
| 2026-05-05 03:15 | 36.13116 | -91.54737 | 29823 ft | 374 kts | 276° |
| 2026-05-05 03:15 | 36.13431 | -91.61132 | 29845 ft | 372 kts | 277° |
| 2026-05-05 03:16 | 36.13822 | -91.67501 | 29851 ft | 371 kts | 277° |
| 2026-05-05 03:16 | 36.14192 | -91.73862 | 29846 ft | 370 kts | 277° |
| 2026-05-05 03:17 | 36.14533 | -91.80215 | 29846 ft | 370 kts | 277° |
| 2026-05-05 03:17 | 36.14859 | -91.86562 | 29840 ft | 370 kts | 277° |
| 2026-05-05 03:18 | 36.15190 | -91.92914 | 29839 ft | 370 kts | 277° |
| 2026-05-05 03:18 | 36.15521 | -91.99253 | 29846 ft | 368 kts | 277° |
| 2026-05-05 03:19 | 36.16007 | -92.08724 | 29849 ft | 367 kts | 277° |
| 2026-05-05 03:19 | 36.16329 | -92.15023 | 29850 ft | 366 kts | 277° |
| 2026-05-05 03:20 | 36.16646 | -92.21277 | 29851 ft | 366 kts | 277° |
| 2026-05-05 03:20 | 36.16962 | -92.27562 | 29857 ft | 366 kts | 277° |
| 2026-05-05 03:21 | 36.17266 | -92.33840 | 29856 ft | 364 kts | 277° |
| 2026-05-05 03:21 | 36.17569 | -92.40078 | 29870 ft | 362 kts | 277° |
| 2026-05-05 03:22 | 36.17864 | -92.46301 | 29883 ft | 362 kts | 277° |
| 2026-05-05 03:22 | 36.18156 | -92.52511 | 29878 ft | 361 kts | 277° |
| 2026-05-05 03:23 | 36.18451 | -92.58709 | 29879 ft | 360 kts | 277° |
| 2026-05-05 03:23 | 36.18735 | -92.64902 | 29877 ft | 360 kts | 277° |
| 2026-05-05 03:24 | 36.19018 | -92.71084 | 29872 ft | 359 kts | 277° |
| 2026-05-05 03:24 | 36.19296 | -92.77206 | 29869 ft | 358 kts | 277° |
| 2026-05-05 03:25 | 36.19576 | -92.83352 | 29847 ft | 358 kts | 277° |
| 2026-05-05 03:25 | 36.19850 | -92.89500 | 29853 ft | 357 kts | 277° |
| 2026-05-05 03:26 | 36.20121 | -92.95649 | 29858 ft | 357 kts | 277° |
| 2026-05-05 03:26 | 36.20388 | -93.01792 | 29873 ft | 357 kts | 277° |
| 2026-05-05 03:27 | 36.20654 | -93.07940 | 29874 ft | 357 kts | 277° |
| 2026-05-05 03:27 | 36.20918 | -93.14079 | 29895 ft | 357 kts | 277° |
| 2026-05-05 03:28 | 36.21170 | -93.20213 | 29887 ft | 357 kts | 277° |
| 2026-05-05 03:28 | 36.21423 | -93.26372 | 29868 ft | 358 kts | 277° |
| 2026-05-05 03:29 | 36.21674 | -93.32552 | 29854 ft | 359 kts | 277° |
| 2026-05-05 03:29 | 36.21924 | -93.38732 | 29841 ft | 360 kts | 277° |
| 2026-05-05 03:30 | 36.22174 | -93.44928 | 29834 ft | 360 kts | 276° |
| 2026-05-05 03:30 | 36.22418 | -93.51134 | 29822 ft | 360 kts | 276° |
| 2026-05-05 03:31 | 36.22653 | -93.57334 | 29812 ft | 360 kts | 276° |
| 2026-05-05 03:31 | 36.22893 | -93.63540 | 29811 ft | 361 kts | 276° |
| 2026-05-05 03:32 | 36.23131 | -93.69714 | 29809 ft | 361 kts | 276° |
| 2026-05-05 03:32 | 36.23366 | -93.75958 | 29818 ft | 361 kts | 276° |
| 2026-05-05 03:33 | 36.23597 | -93.82166 | 29794 ft | 361 kts | 276° |
| 2026-05-05 03:33 | 36.23818 | -93.88338 | 29814 ft | 361 kts | 276° |
| 2026-05-05 03:34 | 36.24034 | -93.94552 | 29823 ft | 361 kts | 276° |
| 2026-05-05 03:34 | 36.24250 | -94.00798 | 29799 ft | 365 kts | 276° |
| 2026-05-05 03:35 | 36.24471 | -94.07093 | 28937 ft | 367 kts | 275° |
| 2026-05-05 03:35 | 36.24577 | -94.10251 | 28129 ft | 367 kts | 275° |
| 2026-05-05 03:35 | 36.24658 | -94.13408 | 27452 ft | 366 kts | 274° |
| 2026-05-05 03:36 | 36.24644 | -94.16546 | 26915 ft | 362 kts | 272° |
| 2026-05-05 03:36 | 36.24566 | -94.19645 | 26389 ft | 358 kts | 270° |
| 2026-05-05 03:36 | 36.24462 | -94.22681 | 25896 ft | 356 kts | 270° |
| 2026-05-05 03:36 | 36.24357 | -94.25616 | 25410 ft | 354 kts | 270° |
| 2026-05-05 03:37 | 36.24258 | -94.28666 | 24905 ft | 354 kts | 270° |
| 2026-05-05 03:37 | 36.24168 | -94.31702 | 24421 ft | 353 kts | 270° |
| 2026-05-05 03:37 | 36.24086 | -94.34735 | 23939 ft | 352 kts | 270° |
| 2026-05-05 03:37 | 36.24010 | -94.37768 | 23464 ft | 352 kts | 270° |
| 2026-05-05 03:38 | 36.23937 | -94.40793 | 22893 ft | 352 kts | 270° |
| 2026-05-05 03:38 | 36.23887 | -94.42801 | 22523 ft | 352 kts | 270° |
| 2026-05-05 03:38 | 36.23810 | -94.45828 | 21972 ft | 352 kts | 270° |
| 2026-05-05 03:38 | 36.23733 | -94.48858 | 21428 ft | 352 kts | 270° |
| 2026-05-05 03:39 | 36.23656 | -94.51885 | 20895 ft | 351 kts | 270° |
| 2026-05-05 03:39 | 36.23578 | -94.54907 | 20371 ft | 350 kts | 269° |
| 2026-05-05 03:39 | 36.23499 | -94.57913 | 19851 ft | 349 kts | 269° |
| 2026-05-05 03:39 | 36.23418 | -94.60916 | 19341 ft | 348 kts | 269° |
| 2026-05-05 03:40 | 36.23337 | -94.63907 | 18844 ft | 346 kts | 269° |
| 2026-05-05 03:40 | 36.23256 | -94.66879 | 18348 ft | 345 kts | 269° |
| 2026-05-05 03:40 | 36.23173 | -94.69835 | 17790 ft | 343 kts | 269° |
| 2026-05-05 03:40 | 36.23090 | -94.72772 | 17229 ft | 340 kts | 269° |
| 2026-05-05 03:41 | 36.23008 | -94.75697 | 16688 ft | 338 kts | 269° |
| 2026-05-05 03:41 | 36.22927 | -94.78599 | 16154 ft | 336 kts | 268° |
| 2026-05-05 03:41 | 36.22842 | -94.81479 | 15630 ft | 334 kts | 268° |
| 2026-05-05 03:41 | 36.22756 | -94.84352 | 15117 ft | 332 kts | 268° |
| 2026-05-05 03:42 | 36.22670 | -94.87198 | 14654 ft | 329 kts | 268° |
| 2026-05-05 03:42 | 36.22587 | -94.90014 | 14190 ft | 326 kts | 268° |
| 2026-05-05 03:42 | 36.22503 | -94.92817 | 13748 ft | 324 kts | 268° |
| 2026-05-05 03:42 | 36.22420 | -94.95601 | 13277 ft | 322 kts | 268° |
| 2026-05-05 03:43 | 36.22336 | -94.98364 | 12792 ft | 320 kts | 268° |
| 2026-05-05 03:43 | 36.22252 | -95.01110 | 12311 ft | 319 kts | 268° |
| 2026-05-05 03:43 | 36.22170 | -95.03811 | 11831 ft | 317 kts | 268° |
| 2026-05-05 03:43 | 36.22086 | -95.06573 | 11354 ft | 315 kts | 268° |
| 2026-05-05 03:44 | 36.22004 | -95.09272 | 10925 ft | 313 kts | 268° |
| 2026-05-05 03:44 | 36.21922 | -95.11919 | 10546 ft | 309 kts | 268° |
| 2026-05-05 03:44 | 36.21836 | -95.14600 | 10163 ft | 306 kts | 268° |
| 2026-05-05 03:44 | 36.21753 | -95.17196 | 10011 ft | 296 kts | 268° |
| 2026-05-05 03:45 | 36.21672 | -95.19669 | 10012 ft | 280 kts | 268° |
| 2026-05-05 03:45 | 36.21594 | -95.22048 | 10017 ft | 275 kts | 268° |
| 2026-05-05 03:45 | 36.21664 | -95.24405 | 10016 ft | 275 kts | 283° |
| 2026-05-05 03:45 | 36.22288 | -95.26608 | 10018 ft | 276 kts | 290° |
| 2026-05-05 03:46 | 36.23035 | -95.28799 | 10015 ft | 276 kts | 291° |
| 2026-05-05 03:46 | 36.23794 | -95.30984 | 10015 ft | 276 kts | 291° |
| 2026-05-05 03:46 | 36.24555 | -95.33167 | 9934 ft | 275 kts | 291° |
| 2026-05-05 03:46 | 36.25317 | -95.35344 | 9558 ft | 276 kts | 291° |
| 2026-05-05 03:47 | 36.26085 | -95.37523 | 9197 ft | 275 kts | 291° |
| 2026-05-05 03:47 | 36.26852 | -95.39685 | 8866 ft | 274 kts | 291° |
| 2026-05-05 03:47 | 36.27620 | -95.41835 | 8547 ft | 272 kts | 291° |
| 2026-05-05 03:47 | 36.28387 | -95.43967 | 8225 ft | 270 kts | 291° |
| 2026-05-05 03:48 | 36.29155 | -95.46087 | 7905 ft | 269 kts | 291° |
| 2026-05-05 03:48 | 36.29923 | -95.48193 | 7591 ft | 267 kts | 291° |
| 2026-05-05 03:48 | 36.30690 | -95.50284 | 7291 ft | 266 kts | 291° |
| 2026-05-05 03:48 | 36.31457 | -95.52360 | 7057 ft | 263 kts | 291° |
| 2026-05-05 03:49 | 36.32225 | -95.54420 | 6921 ft | 265 kts | 291° |
| 2026-05-05 03:49 | 36.33001 | -95.56498 | 6585 ft | 265 kts | 291° |
| 2026-05-05 03:49 | 36.33782 | -95.58575 | 6272 ft | 265 kts | 291° |
| 2026-05-05 03:49 | 36.34559 | -95.60625 | 6043 ft | 261 kts | 291° |
| 2026-05-05 03:50 | 36.35336 | -95.62648 | 5735 ft | 259 kts | 291° |
| 2026-05-05 03:50 | 36.36124 | -95.64655 | 5412 ft | 258 kts | 291° |
| 2026-05-05 03:50 | 36.36933 | -95.66649 | 5068 ft | 259 kts | 291° |
| 2026-05-05 03:50 | 36.37768 | -95.68613 | 4673 ft | 263 kts | 291° |
| 2026-05-05 03:51 | 36.38662 | -95.70637 | 4293 ft | 265 kts | 291° |
| 2026-05-05 03:51 | 36.39537 | -95.72611 | 4013 ft | 263 kts | 292° |
| 2026-05-05 03:51 | 36.40409 | -95.74606 | 3692 ft | 263 kts | 291° |
| 2026-05-05 03:51 | 36.41092 | -95.76667 | 3354 ft | 254 kts | 275° |
| 2026-05-05 03:52 | 36.41441 | -95.78812 | 3029 ft | 253 kts | 272° |
| 2026-05-05 03:52 | 36.41757 | -95.80965 | 2994 ft | 254 kts | 269° |
| 2026-05-05 03:52 | 36.41656 | -95.83035 | 2991 ft | 228 kts | 246° |
| 2026-05-05 03:52 | 36.40928 | -95.84612 | 2998 ft | 200 kts | 219° |
| 2026-05-05 03:53 | 36.39879 | -95.85626 | 2995 ft | 184 kts | 213° |
| 2026-05-05 03:53 | 36.38829 | -95.86514 | 2997 ft | 183 kts | 210° |
| 2026-05-05 03:53 | 36.37648 | -95.87046 | 3000 ft | 183 kts | 187° |
| 2026-05-05 03:53 | 36.36374 | -95.87137 | 2997 ft | 184 kts | 186° |
| 2026-05-05 03:54 | 36.35132 | -95.87216 | 2965 ft | 173 kts | 187° |
| 2026-05-05 03:54 | 36.33950 | -95.87293 | 2827 ft | 169 kts | 187° |
| 2026-05-05 03:54 | 36.32786 | -95.87371 | 2654 ft | 165 kts | 186° |
| 2026-05-05 03:54 | 36.31671 | -95.87446 | 2489 ft | 155 kts | 184° |
| 2026-05-05 03:55 | 36.30630 | -95.87515 | 2296 ft | 147 kts | 184° |
| 2026-05-05 03:55 | 36.29632 | -95.87582 | 2123 ft | 141 kts | 185° |
| 2026-05-05 03:55 | 36.28656 | -95.87645 | 1954 ft | 140 kts | 184° |
| 2026-05-05 03:55 | 36.27700 | -95.87712 | 1764 ft | 139 kts | 182° |
| 2026-05-05 03:56 | 36.26736 | -95.87778 | 1601 ft | 140 kts | 182° |
| 2026-05-05 03:56 | 36.25767 | -95.87841 | 1451 ft | 140 kts | 180° |
| 2026-05-05 03:56 | 36.24796 | -95.87906 | 1294 ft | 137 kts | 180° |
| 2026-05-05 03:56 | 36.23827 | -95.87966 | 1111 ft | 140 kts | 181° |
| 2026-05-05 03:57 | 36.22857 | -95.88035 | 941 ft | 138 kts | 179° |
| 2026-05-05 03:57 | 36.21888 | -95.88101 | 770 ft | 139 kts | 178° |
| 2026-05-05 03:57 | 36.20931 | -95.88166 | 671 ft | 130 kts | 180° |
| 2026-05-05 03:57 | 36.20185 | -95.88213 | 666 ft | 83 kts | 183° |
| 2026-05-05 03:58 | 36.19755 | -95.88243 | 669 ft | 42 kts | 182° |
| 2026-05-05 03:58 | 36.19492 | -95.88262 | 669 ft | 37 kts | 184° |
| 2026-05-05 03:58 | 36.19303 | -95.88288 | 668 ft | 23 kts | 199° |
| 2026-05-05 03:58 | 36.19198 | -95.88361 | 667 ft | 13 kts | 213° |
| 2026-05-05 03:59 | 36.19142 | -95.88410 | 665 ft | 9 kts | 218° |
| 2026-05-05 03:59 | 36.19128 | -95.88480 | 667 ft | 9 kts | 290° |
| 2026-05-05 03:59 | 36.19165 | -95.88541 | 667 ft | 8 kts | 308° |
| 2026-05-05 03:59 | 36.19185 | -95.88574 | 666 ft | 4 kts | 307° |
| 2026-05-05 04:00 | 36.19209 | -95.88612 | 667 ft | 7 kts | 307° |
| 2026-05-05 04:00 | 36.19219 | -95.88629 | 665 ft | 3 kts | 307° |
| 2026-05-05 04:00 | 36.19222 | -95.88651 | 668 ft | 2 kts | 242° |
| 2026-05-05 04:00 | 36.19207 | -95.88659 | 666 ft | 4 kts | 200° |
| 2026-05-05 04:01 | 36.19176 | -95.88674 | 667 ft | 4 kts | 202° |
| 2026-05-05 04:01 | 36.19165 | -95.88679 | 667 ft | 2 kts | 202° |
| 2026-05-05 04:01 | 36.19162 | -95.88681 | 667 ft | 0 kts | 202° |